Friday, January 19, 2018, 2:21 AM EST
Back to Local

KORF, Norfolk International Airport

Location: Norfolk, VA, United States Lat: 36.9
Local Time: 2:21 AM EST ( 7:21 GMT) Lon: -76.2
Time Zone: US/Eastern Elev: 26 ft

Show me the last for .
Show Decoded

2018-01-19 01:51 METAR KORF 190651Z 24005KT 10SM CLR M01/M07 A3016 RMK AO2 SLP211 T10061072 =
2018-01-19 00:51 METAR KORF 190551Z 24006KT 10SM CLR M01/M07 A3017 RMK AO2 SLP214 T10061067 10011
                 21011 50001 =
2018-01-18 23:51 METAR KORF 190451Z 23009KT 10SM CLR M01/M07 A3018 RMK AO2 SLP218 T10061067
                 400331056 =
2018-01-18 22:51 METAR KORF 190351Z 24009KT 10SM CLR 00/M06 A3016 RMK AO2 SLP214 T00001061 =
2018-01-18 21:51 METAR KORF 190251Z 24010KT 10SM CLR M01/M06 A3016 RMK AO2 SLP213 T10061056 53008
                 =
2018-01-18 20:51 METAR KORF 190151Z 23009KT 10SM CLR 00/M06 A3016 RMK AO2 SLP211 T00001056 =
2018-01-18 19:51 METAR KORF 190051Z 25006KT 10SM CLR 01/M06 A3014 RMK AO2 SLP207 T00111061 =
2018-01-18 18:51 METAR KORF 182351Z 24011KT 10SM CLR 01/M06 A3014 RMK AO2 SLP205 T00111056 10033
                 20000 53011 =
2018-01-18 17:51 METAR KORF 182251Z 24013G18KT 10SM CLR 01/M06 A3013 RMK AO2 SLP201 T00111061 =
2018-01-18 16:51 METAR KORF 182151Z 26010G20KT 10SM CLR 03/M08 A3012 RMK AO2 SLP198 T00281078 =
2018-01-18 15:51 METAR KORF 182051Z 26009KT 10SM CLR 03/M09 A3011 RMK AO2 SLP195 T00331089 55015
                 =
2018-01-18 14:51 METAR KORF 181951Z 26006KT 10SM CLR 02/M09 A3011 RMK AO2 SLP194 T00221094 =
2018-01-18 13:51 METAR KORF 181851Z 26010G17KT 10SM CLR 01/M11 A3013 RMK AO2 SLP203 T00061106 =
2018-01-18 12:51 METAR KORF 181751Z 25008KT 10SM CLR 00/M10 A3015 RMK AO2 SLP209 T00001100 10000
                 21050 58020 =
2018-01-18 11:51 METAR KORF 181651Z 29008KT 260V320 10SM CLR M02/M11 A3018 RMK AO2 SLP219
                 T10171111 =
2018-01-18 10:51 METAR KORF 181551Z 31009G16KT 10SM CLR M02/M13 A3021 RMK AO2 SLP228 T10221128 =
2018-01-18 09:51 METAR KORF 181451Z 33008G17KT 10SM CLR M03/M13 A3021 RMK AO2 SLP229 T10331128
                 53008 =
2018-01-18 08:51 METAR KORF 181351Z 33012KT 10SM CLR M04/M12 A3020 RMK AO2 SLP226 T10391122 =
2018-01-18 08:34 METAR KORF 181334Z 34010KT 10SM CLR M04/M12 A3019 RMK AO2 T10441117 =
2018-01-18 07:51 METAR KORF 181251Z 33008G15KT 300V010 10SM CLR M05/M12 A3019 RMK AO2 SLP224
                 T10501117 =
2018-01-18 06:51 METAR KORF 181151Z 33007G14KT 10SM CLR M05/M12 A3019 RMK AO2 SLP221 60000 70005
                 T10501117 11028 21056 53014 =
2018-01-18 05:51 METAR KORF 181051Z 32006G15KT 10SM SCT075 OVC095 M04/M11 A3015 RMK AO2 SLP208
                 T10441111 =
2018-01-18 04:51 METAR KORF 180951Z 34012G19KT 10SM OVC085 M04/M11 A3015 RMK AO2 SLP210 T10391106
                 =
2018-01-18 03:51 METAR KORF 180851Z 36017G24KT 10SM OVC085 M04/M10 A3015 RMK AO2 PK WND
                 35028/0832 SLP207 60000 T10391100 53006 =
2018-01-18 02:51 METAR KORF 180751Z 35014G24KT 10SM BKN050 OVC070 M03/M10 A3013 RMK AO2 PK WND
                 36028/0711 UPB34E45SNE34 SLP202 P0000 T10331100 =

Support USWX by starting your Amazon purchase here.